Cincinnati, Ohio
Traffic Map
Current Weather Conditions
Cincinnati, Ohio
Clear
Clear
73°
Feels Like: 73°
Wind Chill: 73° Ceiling: Unl
Heat Index: 73° Visibility: 10mi
Dew Point: 65° Wind: 0mph
Humidity: 76% Direction: ° ()
Pressure: 30.16in Gusts: 0mph
Raw Report DataKLUK 290153Z 00000KT 10SM CLR 23/18 A3016 RMK AO2 SLP211 T02280183
Traffic Incident Summary
Active as of:
Severity:
Category:
InformationThere was an issue retrieving the traffic information for this location. Please try a different location or try again shortly.
Advertisements
Track Severe Weather on mobile